createdAt,value
2018-02-06T00:02:20.422Z,97336.52
2018-02-06T00:04:47.941Z,97326.56
2018-02-06T00:07:15.501Z,97322.38
2018-02-06T00:09:43.030Z,97319.91
2018-02-06T00:12:10.554Z,97317.84
2018-02-06T00:14:38.101Z,97318.27
2018-02-06T00:17:05.618Z,97306.58
2018-02-06T00:19:33.174Z,97304.92
2018-02-06T00:22:00.853Z,97301.63
2018-02-06T00:24:28.378Z,97304.88
2018-02-06T00:26:55.900Z,97301.14
2018-02-06T00:29:23.470Z,97306.96
2018-02-06T00:31:50.989Z,97302.77
2018-02-06T00:34:18.510Z,97295.28
2018-02-06T00:36:46.049Z,97291.11
2018-02-06T00:39:13.571Z,97291.12
2018-02-06T00:41:41.169Z,97292.77
2018-02-06T00:44:08.885Z,97290.25
2018-02-06T00:46:36.393Z,97290.27
2018-02-06T00:49:03.934Z,97291.52
2018-02-06T00:51:31.477Z,97289.45
2018-02-06T00:53:58.990Z,97284.06
2018-02-06T00:56:26.509Z,97285.73
2018-02-06T00:58:54.069Z,97279.52
2018-02-06T01:01:21.598Z,97273.72
2018-02-06T01:03:49.110Z,97267.07
2018-02-06T01:06:17.008Z,97265.83
2018-02-06T01:08:44.520Z,97256.27
2018-02-06T01:11:12.041Z,97263.76
2018-02-06T01:13:39.572Z,97254.22
2018-02-06T01:16:07.097Z,97254.23
2018-02-06T01:18:34.620Z,97250.50
2018-02-06T01:21:02.161Z,97250.08
2018-02-06T01:23:29.682Z,97239.30
2018-02-06T01:25:57.233Z,97236.41
2018-02-06T01:28:24.782Z,97231.41
2018-02-06T01:30:52.311Z,97218.50
2018-02-06T01:33:19.841Z,97229.72
2018-02-06T01:35:47.394Z,97228.91
2018-02-06T01:38:14.984Z,97224.34
2018-02-06T01:40:42.516Z,97218.52
2018-02-06T01:43:10.061Z,97222.25
2018-02-06T01:45:37.585Z,97212.27
2018-02-06T01:48:06.049Z,97214.36
2018-02-06T01:50:33.581Z,97218.53
2018-02-06T01:53:01.127Z,97213.53
2018-02-06T01:55:28.650Z,97199.00
2018-02-06T01:57:56.189Z,97190.69
2018-02-06T02:00:23.714Z,97201.06
2018-02-06T02:02:51.239Z,97201.48
2018-02-06T02:05:18.777Z,97201.91
2018-02-06T02:07:46.297Z,97194.44
2018-02-06T02:10:13.813Z,97187.77
2018-02-06T02:12:41.749Z,97188.60
2018-02-06T02:15:09.268Z,97179.87
2018-02-06T02:17:36.786Z,97173.23
2018-02-06T02:20:04.334Z,97183.62
2018-02-06T02:22:31.847Z,97176.14
2018-02-06T02:24:59.453Z,97171.98
2018-02-06T02:27:26.992Z,97168.25
2018-02-06T02:29:54.497Z,97168.67
2018-02-06T02:32:22.015Z,97167.84
2018-02-06T02:34:49.562Z,97157.03
2018-02-06T02:37:17.076Z,97150.80
2018-02-06T02:39:44.593Z,97152.05
2018-02-06T04:40:13.582Z,97045.17
2018-02-06T04:42:41.093Z,97044.36
2018-02-06T04:45:08.641Z,97044.72
2018-02-06T04:47:36.167Z,97030.25
2018-02-06T04:50:03.689Z,97040.98
2018-02-06T04:52:31.235Z,97036.37
2018-02-06T04:54:58.758Z,97039.31
2018-02-06T04:57:26.266Z,97035.16
2018-02-06T04:59:53.812Z,97033.09
2018-02-06T05:02:21.800Z,97028.56
2018-02-06T05:04:49.425Z,97025.22
2018-02-06T05:07:17.327Z,97019.72
2018-02-06T05:09:44.849Z,97023.36
2018-02-06T05:12:12.401Z,97019.21
2018-02-06T05:14:39.962Z,97015.00
2018-02-06T05:17:07.482Z,97006.83
2018-02-06T05:19:35.025Z,97006.25
2018-02-06T05:22:02.541Z,97008.34
2018-02-06T05:24:30.086Z,97003.00
2018-02-06T05:26:57.638Z,96996.37
2018-02-06T05:29:25.159Z,96994.97
2018-02-06T05:31:52.701Z,96992.41
2018-02-06T05:34:20.216Z,96993.34
2018-02-06T05:36:47.758Z,96987.65
2018-02-06T05:39:15.289Z,96984.17
2018-02-06T05:41:42.821Z,96978.41
2018-02-06T05:44:10.373Z,96985.44
2018-02-06T05:46:37.894Z,96985.35
2018-02-06T05:49:05.433Z,96983.81
2018-02-06T05:51:32.973Z,96978.72
2018-02-06T05:54:00.490Z,96975.80
2018-02-06T05:56:28.037Z,96970.13
2018-02-06T05:58:55.553Z,96968.02
2018-02-06T06:01:23.090Z,96964.64
2018-02-06T06:03:50.637Z,96960.06
2018-02-06T06:06:18.157Z,96963.03
2018-02-06T06:08:45.700Z,96963.91
2018-02-06T06:11:13.232Z,96954.25
2018-02-06T06:13:40.779Z,96948.05
2018-02-06T06:16:08.330Z,96950.20
2018-02-06T06:18:35.838Z,96947.77
2018-02-06T06:21:03.390Z,96944.16
2018-02-06T06:23:30.922Z,96935.45
2018-02-06T06:25:58.465Z,96938.22
2018-02-06T06:28:26.027Z,96941.11
2018-02-06T06:30:53.541Z,96937.45
2018-02-06T06:33:21.084Z,96941.90
2018-02-06T06:35:48.601Z,96936.50
2018-02-06T06:38:16.141Z,96938.58
2018-02-06T06:40:43.997Z,96936.45
2018-02-06T06:43:11.522Z,96939.70
2018-02-06T06:45:39.071Z,96936.83
2018-02-06T06:48:06.581Z,96935.19
2018-02-06T06:50:34.293Z,96934.88
2018-02-06T06:53:01.929Z,96935.23
2018-02-06T06:55:29.448Z,96940.18
2018-02-06T06:57:57.003Z,96938.08
2018-02-06T07:00:24.542Z,96930.94
2018-02-06T07:02:52.316Z,96928.48
2018-02-06T07:05:19.847Z,96928.03
2018-02-06T07:07:47.365Z,96935.94
2018-02-06T07:10:14.918Z,96935.42
2018-02-06T07:12:42.442Z,96929.28
2018-02-06T07:15:10.288Z,96936.49
2018-02-06T07:17:37.810Z,96932.23
2018-02-06T07:20:05.330Z,96933.23
2018-02-06T07:22:32.873Z,96931.84
2018-02-06T07:25:00.389Z,96918.46
2018-02-06T07:27:28.281Z,96919.31
2018-02-06T07:29:55.795Z,96929.69
2018-02-06T07:32:23.314Z,96927.95
2018-02-06T07:34:50.849Z,96921.30
2018-02-06T07:37:18.369Z,96920.49
2018-02-06T07:39:46.077Z,96928.72
2018-02-06T07:42:13.597Z,96924.09
2018-02-06T07:44:41.118Z,96928.35
2018-02-06T07:47:08.678Z,96920.23
2018-02-06T07:49:36.646Z,96911.34
2018-02-06T07:52:04.389Z,96917.88
2018-02-06T07:54:31.910Z,96917.69
2018-02-06T07:56:59.425Z,96911.47
2018-02-06T07:59:26.977Z,96916.80
2018-02-06T08:01:54.499Z,96918.62
2018-02-06T08:04:22.190Z,96917.41
2018-02-06T08:06:49.705Z,96917.84
2018-02-06T08:09:17.214Z,96927.09
2018-02-06T08:11:44.761Z,96928.84
2018-02-06T08:14:12.299Z,96927.23
2018-02-06T08:16:39.874Z,96923.04
2018-02-06T08:19:07.395Z,96914.41
2018-02-06T08:21:34.911Z,96914.41
2018-02-06T08:24:02.462Z,96910.99
2018-02-06T08:26:29.977Z,96907.13
2018-02-06T08:28:57.774Z,96907.48
2018-02-06T08:31:25.302Z,96909.13
2018-02-06T08:33:52.822Z,96906.56
2018-02-06T08:36:20.371Z,96897.27
2018-02-06T08:38:47.893Z,96902.02
2018-02-06T08:41:15.453Z,96906.36
2018-02-06T08:43:42.971Z,96903.00
2018-02-06T08:46:10.489Z,96898.69
2018-02-06T08:48:38.038Z,96897.11
2018-02-06T08:51:05.562Z,96900.36
2018-02-06T08:53:33.273Z,96899.35
2018-02-06T08:56:00.802Z,96897.03
2018-02-06T08:58:28.326Z,96891.91
2018-02-06T09:00:55.877Z,96888.72
2018-02-06T09:03:23.410Z,96878.19
2018-02-06T09:05:51.166Z,96881.45
2018-02-06T09:08:18.681Z,96884.22
2018-02-06T09:10:46.198Z,96878.05
2018-02-06T09:13:13.746Z,96873.75
2018-02-06T09:15:41.261Z,96868.78
2018-02-06T09:18:08.961Z,96867.49
2018-02-06T09:20:36.646Z,96867.73
2018-02-06T09:23:04.174Z,96865.44
2018-02-06T09:25:31.718Z,96865.31
2018-02-06T09:27:59.239Z,96862.69
2018-02-06T09:30:26.814Z,96867.73
2018-02-06T09:32:54.334Z,96860.59
2018-02-06T09:35:21.845Z,96864.67
2018-02-06T09:37:49.389Z,96862.73
2018-02-06T09:40:16.917Z,96862.66
2018-02-06T09:42:44.677Z,96857.08
2018-02-06T09:45:12.190Z,96861.73
2018-02-06T09:47:39.710Z,96852.98
2018-02-06T09:50:07.275Z,96848.42
2018-02-06T09:52:34.793Z,96851.50
2018-02-06T09:55:02.454Z,96846.41
2018-02-06T09:57:29.974Z,96848.58
2018-02-06T09:59:57.493Z,96851.95
2018-02-06T10:02:25.037Z,96846.70
2018-02-06T10:04:52.563Z,96847.58
2018-02-06T10:07:20.246Z,96849.89
2018-02-06T10:09:47.761Z,96848.33
2018-02-06T10:12:15.278Z,96845.07
2018-02-06T10:14:42.838Z,96843.16
2018-02-06T10:17:10.371Z,96843.00
2018-02-06T10:19:37.922Z,96837.48
2018-02-06T10:22:05.441Z,96834.52
2018-02-06T10:24:33.031Z,96837.97
2018-02-06T10:27:00.572Z,96831.91
2018-02-06T10:29:28.099Z,96835.89
2018-02-06T10:31:55.846Z,96834.19
2018-02-06T10:34:23.356Z,96826.89
2018-02-06T10:36:50.878Z,96826.83
2018-02-06T10:39:18.425Z,96823.71
2018-02-06T10:41:45.942Z,96813.73
2018-02-06T10:44:13.841Z,96811.71
2018-02-06T10:46:41.358Z,96809.84
2018-02-06T10:49:08.879Z,96798.72
2018-02-06T10:51:36.449Z,96803.38
2018-02-06T10:54:03.969Z,96794.89
2018-02-06T10:56:31.606Z,96800.02
2018-02-06T10:58:59.129Z,96786.18
2018-02-06T11:01:26.645Z,96791.39
2018-02-06T11:03:54.197Z,96788.11
2018-02-06T11:06:21.718Z,96782.36
2018-02-06T11:08:49.432Z,96780.73
2018-02-06T11:11:16.955Z,96775.75
2018-02-06T11:13:44.469Z,96776.59
2018-02-06T11:16:12.022Z,96773.72
2018-02-06T11:18:39.545Z,96764.17
2018-02-06T11:21:07.235Z,96760.91
2018-02-06T11:23:34.756Z,96753.98
2018-02-06T11:26:02.277Z,96757.89
2018-02-06T11:28:29.820Z,96766.09
2018-02-06T11:30:57.384Z,96750.11
2018-02-06T11:33:25.125Z,96743.28
2018-02-06T11:35:52.650Z,96746.58
2018-02-06T11:38:20.174Z,96750.07
2018-02-06T11:40:47.722Z,96741.09
2018-02-06T11:43:15.246Z,96737.67
2018-02-06T11:45:43.030Z,96725.78
2018-02-06T11:48:10.559Z,96724.59
2018-02-06T11:50:38.086Z,96723.93
2018-02-06T11:53:05.651Z,96716.41
2018-02-06T11:55:33.173Z,96718.17
2018-02-06T11:58:00.781Z,96714.10
2018-02-06T12:00:28.298Z,96705.48
2018-02-06T12:02:55.837Z,96700.94
2018-02-06T12:05:23.386Z,96696.62
2018-02-06T12:07:50.924Z,96695.69
2018-02-06T12:10:18.479Z,96687.16
2018-02-06T12:12:45.992Z,96694.77
2018-02-06T12:15:13.958Z,96683.25
2018-02-06T12:17:41.522Z,96678.60
2018-02-06T12:20:09.050Z,96681.84
2018-02-06T12:22:36.822Z,96674.85
2018-02-06T12:25:04.346Z,96668.93
2018-02-06T12:27:31.863Z,96672.05
2018-02-06T12:29:59.422Z,96667.73
2018-02-06T12:32:26.940Z,96655.24
2018-02-06T12:34:54.522Z,96647.20
2018-02-06T12:37:22.046Z,96648.28
2018-02-06T12:39:50.577Z,96650.66
2018-02-06T12:42:18.128Z,96648.25
2018-02-06T12:44:45.649Z,96639.03
2018-02-06T12:47:13.481Z,96633.44
2018-02-06T12:49:41.089Z,96634.64
2018-02-06T12:52:08.653Z,96635.06
2018-02-06T12:54:36.210Z,96637.57
2018-02-06T12:57:03.755Z,96638.45
2018-02-06T13:01:59.049Z,96641.33
2018-02-06T13:04:26.575Z,96638.34
2018-02-06T13:06:54.129Z,96640.14
2018-02-06T13:09:21.642Z,96630.20
2018-02-06T13:11:49.433Z,96621.51
2018-02-06T13:14:16.957Z,96617.72
2018-02-06T13:16:44.497Z,96621.05
2018-02-06T13:19:12.124Z,96616.27
2018-02-06T13:21:39.655Z,96617.31
2018-02-06T13:24:07.601Z,96619.94
2018-02-06T13:26:35.119Z,96625.59
2018-02-06T13:29:02.681Z,96625.23
2018-02-06T13:31:30.242Z,96627.66
2018-02-06T13:33:57.781Z,96625.61
2018-02-06T13:36:25.347Z,96624.10
2018-02-06T13:38:52.902Z,96618.14
2018-02-06T13:41:20.421Z,96617.27
2018-02-06T13:43:47.986Z,96603.84
2018-02-06T13:46:15.498Z,96589.83
2018-02-06T13:48:43.260Z,96591.27
2018-02-06T13:51:10.781Z,96585.59
2018-02-06T13:53:38.305Z,96582.87
2018-02-06T13:56:05.852Z,96584.30
2018-02-06T13:58:33.378Z,96585.25
2018-02-06T14:01:01.141Z,96582.77
2018-02-06T14:03:28.662Z,96590.50
2018-02-06T14:05:56.210Z,96586.31
2018-02-06T14:08:23.750Z,96586.97
2018-02-06T14:10:51.273Z,96591.48
2018-02-06T14:13:18.934Z,96592.72
2018-02-06T14:15:46.461Z,96588.67
2018-02-06T14:18:13.983Z,96587.52
2018-02-06T14:20:41.531Z,96590.20
2018-02-06T14:23:09.047Z,96586.01
2018-02-06T14:25:37.059Z,96589.19
2018-02-06T14:28:04.582Z,96587.47
2018-02-06T14:30:32.111Z,96584.05
2018-02-06T14:32:59.658Z,96582.31
2018-02-06T14:35:27.194Z,96588.46
2018-02-06T14:37:54.952Z,96589.91
2018-02-06T14:40:22.482Z,96581.86
2018-02-06T14:42:49.997Z,96580.17
2018-02-06T14:45:17.550Z,96581.80
2018-02-06T14:47:45.193Z,96585.42
2018-02-06T14:50:12.934Z,96581.65
2018-02-06T14:52:40.451Z,96579.09
2018-02-06T14:55:07.984Z,96586.64
2018-02-06T14:57:35.529Z,96585.86
2018-02-06T15:00:03.047Z,96580.55
2018-02-06T15:02:30.938Z,96589.36
2018-02-06T15:04:58.516Z,96589.89
2018-02-06T15:07:26.045Z,96591.59
2018-02-06T15:09:53.590Z,96594.64
2018-02-06T15:12:21.117Z,96590.48
2018-02-06T15:14:48.973Z,96586.84
2018-02-06T15:17:16.555Z,96586.10
2018-02-06T15:19:44.087Z,96583.05
2018-02-06T15:22:11.943Z,96585.21
2018-02-06T15:24:39.599Z,96588.36
2018-02-06T15:27:07.366Z,96589.16
2018-02-06T15:29:34.913Z,96590.00
2018-02-06T15:32:02.589Z,96589.87
2018-02-06T15:34:30.170Z,96588.76
2018-02-06T15:36:57.705Z,96583.73
2018-02-06T15:39:25.286Z,96586.42
2018-02-06T15:41:52.805Z,96581.66
2018-02-06T15:44:20.353Z,96585.39
2018-02-06T15:46:48.113Z,96579.31
2018-02-06T15:49:15.634Z,96577.70
2018-02-06T15:51:43.193Z,96577.66
2018-02-06T15:54:11.127Z,96573.44
2018-02-06T15:56:38.793Z,96574.80
2018-02-06T15:59:06.630Z,96570.21
2018-02-06T16:01:34.236Z,96566.52
2018-02-06T16:04:02.169Z,96569.95
2018-02-06T16:06:30.718Z,96570.45
2018-02-06T16:08:58.373Z,96568.39
2018-02-06T16:11:26.377Z,96577.95
2018-02-06T16:13:53.918Z,96573.28
2018-02-06T16:16:21.932Z,96575.31
2018-02-06T16:18:49.697Z,96574.22
2018-02-06T16:21:17.294Z,96575.36
2018-02-06T16:23:45.334Z,96571.73
2018-02-06T16:26:13.196Z,96574.20
2018-02-06T16:28:41.674Z,96581.77
2018-02-06T16:31:09.544Z,96573.56
2018-02-06T16:33:37.133Z,96575.81
2018-02-06T16:36:05.069Z,96577.19
2018-02-06T16:38:32.990Z,96581.54
2018-02-06T16:41:01.030Z,96587.23
2018-02-06T16:43:28.873Z,96580.41
2018-02-06T16:45:57.539Z,96585.77
2018-02-06T16:48:25.527Z,96584.25
2018-02-06T16:50:53.393Z,96582.48
2018-02-06T16:53:21.874Z,96585.73
2018-02-06T16:55:49.706Z,96587.56
2018-02-06T16:58:17.997Z,96595.48
2018-02-06T17:00:45.987Z,96600.97
2018-02-06T17:03:13.854Z,96591.63
2018-02-06T17:05:42.126Z,96595.20
2018-02-06T17:08:09.995Z,96583.62
2018-02-06T17:10:37.861Z,96584.37
2018-02-06T17:13:06.140Z,96579.77
2018-02-06T17:15:34.311Z,96582.62
2018-02-06T17:18:02.279Z,96586.04
2018-02-06T17:20:30.123Z,96579.06
2018-02-06T17:22:58.018Z,96575.48
2018-02-06T17:25:26.084Z,96578.94
2018-02-06T17:27:53.950Z,96578.16
2018-02-06T17:30:22.022Z,96578.78
2018-02-06T17:32:49.857Z,96575.34
2018-02-06T17:35:17.755Z,96571.19
2018-02-06T17:37:45.628Z,96574.06
2018-02-06T17:40:13.692Z,96568.50
2018-02-06T17:42:41.451Z,96579.76
2018-02-06T17:45:09.038Z,96575.06
2018-02-06T17:47:36.574Z,96581.80
2018-02-06T17:50:04.395Z,96585.23
2018-02-06T17:52:32.206Z,96574.03
2018-02-06T17:55:00.070Z,96576.13
2018-02-06T17:57:28.450Z,96580.59
2018-02-06T17:59:56.228Z,96582.16
2018-02-06T18:02:24.153Z,96579.98
2018-02-06T18:04:52.055Z,96587.44
2018-02-06T18:07:20.020Z,96576.28
2018-02-06T18:09:47.855Z,96589.25
2018-02-06T18:12:15.650Z,96592.22
2018-02-06T18:14:44.846Z,96587.26
2018-02-06T18:17:13.226Z,96584.39
2018-02-06T18:19:41.399Z,96582.35
2018-02-06T18:22:09.372Z,96579.08
2018-02-06T18:24:37.258Z,96578.30
2018-02-06T18:27:05.168Z,96580.83
2018-02-06T18:29:33.035Z,96574.73
2018-02-06T18:32:01.146Z,96578.84
2018-02-06T18:34:29.211Z,96577.19
2018-02-06T18:36:57.410Z,96588.94
2018-02-06T18:39:25.354Z,96583.53
2018-02-06T18:41:53.325Z,96581.45
2018-02-06T18:44:21.498Z,96579.73
2018-02-06T18:46:49.365Z,96579.78
2018-02-06T18:49:17.194Z,96583.20
2018-02-06T18:51:45.061Z,96584.78
2018-02-06T18:54:12.963Z,96579.36
2018-02-06T18:56:41.159Z,96584.77
2018-02-06T18:59:09.145Z,96586.53
2018-02-06T19:01:37.075Z,96581.63
2018-02-06T19:04:05.018Z,96583.75
2018-02-06T19:06:32.886Z,96586.72
2018-02-06T19:09:01.493Z,96594.62
2018-02-06T19:11:30.538Z,96595.03
2018-02-06T19:13:59.333Z,96585.05
2018-02-06T19:16:28.369Z,96587.59
2018-02-06T19:18:56.338Z,96584.26
2018-02-06T19:21:24.818Z,96581.80
2018-02-06T19:23:52.788Z,96583.05
2018-02-06T19:26:21.248Z,96579.31
2018-02-06T19:28:49.238Z,96582.97
2018-02-06T19:31:17.520Z,96574.55
2018-02-06T19:33:45.400Z,96571.30
2018-02-06T19:36:13.356Z,96576.39
2018-02-06T19:38:41.216Z,96575.60
2018-02-06T19:41:09.186Z,96581.09
2018-02-06T19:43:37.153Z,96580.73
2018-02-06T19:46:05.175Z,96576.52
2018-02-06T19:48:33.193Z,96578.60
2018-02-06T19:51:01.059Z,96576.94
2018-02-06T19:53:30.360Z,96575.28
2018-02-06T19:55:58.329Z,96575.31
2018-02-06T19:58:26.624Z,96574.48
2018-02-06T20:00:54.473Z,96574.91
2018-02-06T20:03:22.339Z,96566.59
2018-02-06T20:05:50.409Z,96571.56
2018-02-06T20:08:18.789Z,96575.73
2018-02-06T20:10:46.962Z,96573.61
2018-02-06T20:13:14.828Z,96581.98
2018-02-06T20:15:42.898Z,96581.59
2018-02-06T20:18:11.901Z,96587.77
2018-02-06T20:20:40.476Z,96584.44
2018-02-06T20:23:08.444Z,96579.06
2018-02-06T20:25:37.017Z,96583.23
2018-02-06T20:28:05.940Z,96586.94
2018-02-06T20:30:33.886Z,96582.68
2018-02-06T20:33:01.754Z,96583.52
2018-02-06T20:35:30.234Z,96589.88
2018-02-06T20:37:58.073Z,96584.09
2018-02-06T20:40:25.967Z,96586.18
2018-02-06T20:42:55.163Z,96578.78
2018-02-06T20:45:23.031Z,96578.86
2018-02-06T20:47:52.230Z,96580.56
2018-02-06T20:50:20.200Z,96578.94
2018-02-06T20:52:48.474Z,96577.69
2018-02-06T20:55:16.443Z,96573.87
2018-02-06T20:57:44.924Z,96577.23
2018-02-06T21:00:13.616Z,96569.78
2018-02-06T21:02:41.641Z,96566.91
2018-02-06T21:05:12.927Z,96564.80
2018-02-06T21:07:40.895Z,96565.66
2018-02-06T21:10:09.339Z,96562.34
2018-02-06T21:12:37.846Z,96573.15
2018-02-06T21:15:05.734Z,96566.42
2018-02-06T21:17:33.561Z,96568.95
2018-02-06T21:20:01.471Z,96574.41
2018-02-06T21:22:29.395Z,96566.83
2018-02-06T21:24:57.701Z,96575.19
2018-02-06T21:27:25.567Z,96572.77
2018-02-06T21:29:53.436Z,96573.91
2018-02-06T21:32:21.327Z,96576.89
2018-02-06T21:34:49.270Z,96568.16
2018-02-06T21:37:17.566Z,96577.39
2018-02-06T21:39:46.230Z,96574.86
2018-02-06T21:42:14.917Z,96573.61
2018-02-06T21:44:42.845Z,96577.34
2018-02-06T21:47:11.571Z,96569.48
2018-02-06T21:49:40.052Z,96572.86
2018-02-06T21:52:07.919Z,96572.89
2018-02-06T21:54:35.801Z,96569.94
2018-02-06T21:57:04.265Z,96568.32
2018-02-06T21:59:32.095Z,96564.16
2018-02-06T22:02:00.327Z,96563.75
2018-02-06T22:04:28.173Z,96563.75
2018-02-06T22:06:56.039Z,96562.58
2018-02-06T22:09:24.078Z,96563.48
2018-02-06T22:11:52.082Z,96563.07
2018-02-06T22:14:20.020Z,96558.12
2018-02-06T22:16:47.984Z,96565.14
2018-02-06T22:19:16.817Z,96563.94
2018-02-06T22:21:45.288Z,96567.34
2018-02-06T22:24:13.154Z,96567.79
2018-02-06T22:26:41.536Z,96569.42
2018-02-06T22:29:09.500Z,96566.23
2018-02-06T22:31:37.778Z,96567.00
2018-02-06T22:34:05.957Z,96567.48
2018-02-06T22:36:33.919Z,96565.02
2018-02-06T22:39:02.093Z,96563.39
2018-02-06T22:41:29.961Z,96564.26
2018-02-06T22:43:59.716Z,96561.35
2018-02-06T22:46:29.587Z,96561.35
2018-02-06T22:48:57.449Z,96565.92
2018-02-06T22:51:25.247Z,96565.51
2018-02-06T22:53:53.898Z,96565.96
2018-02-06T22:56:21.766Z,96561.39
2018-02-06T22:58:49.633Z,96564.72
2018-02-06T23:01:17.369Z,96568.38
2018-02-06T23:03:45.420Z,96574.27
2018-02-06T23:06:13.232Z,96575.75
2018-02-06T23:08:40.977Z,96574.75
2018-02-06T23:11:08.627Z,96572.67
2018-02-06T23:13:36.663Z,96571.87
2018-02-06T23:16:04.495Z,96570.25
2018-02-06T23:18:32.247Z,96569.83
2018-02-06T23:20:59.815Z,96570.85
2018-02-06T23:23:27.477Z,96575.36
2018-02-06T23:25:55.043Z,96575.80
2018-02-06T23:28:23.068Z,96577.82
2018-02-06T23:30:50.641Z,96572.90
2018-02-06T23:33:18.181Z,96569.64
2018-02-06T23:35:45.888Z,96577.50
2018-02-06T23:38:13.427Z,96578.33
2018-02-06T23:40:41.246Z,96576.67
2018-02-06T23:43:08.832Z,96582.09
2018-02-06T23:45:36.370Z,96574.17
2018-02-06T23:48:04.209Z,96582.04
2018-02-06T23:50:31.872Z,96580.77
2018-02-06T23:53:00.024Z,96582.06
2018-02-06T23:55:27.546Z,96582.81
2018-02-06T23:57:55.073Z,96580.73
